Time;durP1;ratioP1;P1;durP2;ratioP2;P2;SDS_P1;SDS_P2;PMS_P1;PMS_P2;Temp;Humidity;BMP_temperature;BMP_pressure;BME280_temperature;BME280_humidity;BME280_pressure;Samples;Min_cycle;Max_cycle;Signal;HPM_P1;HPM_P2
2021/08/09 00:01:35;;;;;;;32.85;23.23;;;24.40;98.20;;;;;;5078446;28;20020;-85
2021/08/09 00:04:01;;;;;;;33.97;23.48;;;24.40;98.20;;;;;;5077906;28;20024;-85
2021/08/09 00:06:26;;;;;;;31.45;23.10;;;24.30;98.20;;;;;;5096096;28;20020;-84
2021/08/09 00:08:52;;;;;;;29.52;22.45;;;24.30;98.20;;;;;;5077587;28;20031;-85
2021/08/09 00:11:18;;;;;;;30.90;22.60;;;24.30;98.20;;;;;;5077623;28;20081;-85
2021/08/09 00:13:43;;;;;;;32.90;22.08;;;24.30;98.30;;;;;;5096336;28;20113;-85
2021/08/09 00:16:09;;;;;;;28.33;20.90;;;24.30;98.30;;;;;;5078283;28;20024;-85
2021/08/09 00:18:35;;;;;;;27.75;20.23;;;24.30;98.30;;;;;;5077792;28;20106;-85
2021/08/09 00:21:01;;;;;;;27.98;20.50;;;24.40;98.30;;;;;;5096322;28;20032;-85
2021/08/09 00:23:27;;;;;;;27.80;20.25;;;24.30;98.30;;;;;;5078449;28;20035;-85
2021/08/09 00:25:52;;;;;;;26.88;19.85;;;24.30;98.30;;;;;;5095647;28;20032;-85
2021/08/09 00:28:18;;;;;;;27.25;19.90;;;24.40;98.30;;;;;;5077189;28;20040;-85
2021/08/09 00:30:44;;;;;;;27.77;18.98;;;24.30;98.30;;;;;;5095959;28;20041;-85
2021/08/09 00:33:09;;;;;;;28.90;19.75;;;24.30;98.30;;;;;;5095183;28;20042;-85
2021/08/09 00:35:35;;;;;;;26.15;17.65;;;24.30;98.30;;;;;;5095526;28;20462;-85
2021/08/09 00:38:01;;;;;;;27.20;18.30;;;24.30;98.40;;;;;;5077403;28;20067;-85
2021/08/09 00:40:26;;;;;;;26.85;18.73;;;24.30;98.40;;;;;;5060505;28;20035;-85
2021/08/09 00:42:52;;;;;;;24.95;18.10;;;24.30;98.40;;;;;;5077465;28;20029;-85
2021/08/09 00:45:18;;;;;;;26.25;17.88;;;24.30;98.40;;;;;;5076938;28;20111;-85
2021/08/09 00:47:43;;;;;;;25.20;18.08;;;24.30;98.40;;;;;;5061318;28;20113;-85
2021/08/09 00:50:09;;;;;;;22.80;17.00;;;24.30;98.40;;;;;;5060130;28;20497;-85
2021/08/09 00:52:35;;;;;;;23.10;16.52;;;24.30;98.40;;;;;;5077281;28;20190;-85
2021/08/09 00:55:02;;;;;;;24.02;17.23;;;24.30;98.40;;;;;;5095434;28;20512;-85
2021/08/09 00:57:27;;;;;;;25.80;17.20;;;24.30;98.40;;;;;;5095701;28;20044;-84
2021/08/09 00:59:53;;;;;;;26.02;17.73;;;24.30;98.40;;;;;;5077298;28;20032;-84
2021/08/09 01:02:19;;;;;;;22.60;16.80;;;24.30;98.40;;;;;;5060468;28;20371;-85
2021/08/09 01:04:46;;;;;;;22.42;16.23;;;24.30;98.40;;;;;;5080188;28;20522;-85
2021/08/09 01:07:12;;;;;;;22.95;15.18;;;24.30;98.40;;;;;;5077332;28;20032;-85
2021/08/09 01:10:01;;;;;;;22.73;15.20;;;24.40;98.40;;;;;;5061374;28;20036;-85
2021/08/09 01:12:34;;;;;;;23.55;15.45;;;24.30;98.40;;;;;;5094597;28;20520;-85
2021/08/09 01:15:26;;;;;;;19.48;14.23;;;24.30;98.40;;;;;;5076807;28;20115;-85
2021/08/09 01:17:55;;;;;;;20.77;15.23;;;24.30;98.40;;;;;;5082673;28;20050;-85
2021/08/09 01:20:32;;;;;;;22.42;14.80;;;24.30;98.50;;;;;;5097930;28;20024;-85
2021/08/09 01:23:33;;;;;;;21.35;14.25;;;24.30;98.50;;;;;;5094499;28;20039;-85
2021/08/09 01:26:24;;;;;;;19.58;15.32;;;24.30;98.50;;;;;;5076800;28;20024;-84
2021/08/09 01:28:56;;;;;;;18.20;14.10;;;24.30;98.50;;;;;;5076628;28;20028;-84
2021/08/09 01:31:31;;;;;;;20.15;14.10;;;24.30;98.60;;;;;;5094419;28;20032;-85
2021/08/09 01:33:59;;;;;;;19.80;13.43;;;24.30;98.60;;;;;;5071490;28;20386;-85
2021/08/09 01:36:26;;;;;;;18.98;13.45;;;24.30;98.60;;;;;;5094524;28;20027;-85
2021/08/09 01:38:53;;;;;;;20.00;13.45;;;24.30;98.60;;;;;;5059712;28;20040;-84
2021/08/09 01:41:19;;;;;;;19.30;14.20;;;24.30;98.60;;;;;;5095858;28;20035;-85
2021/08/09 01:43:45;;;;;;;17.20;12.70;;;24.30;98.60;;;;;;5076129;28;20393;-84
2021/08/09 01:46:12;;;;;;;18.83;12.88;;;24.30;98.60;;;;;;5094134;28;20032;-85
2021/08/09 01:48:39;;;;;;;20.50;12.85;;;24.40;98.60;;;;;;5077795;28;20032;-85
2021/08/09 01:51:05;;;;;;;16.92;12.68;;;24.40;98.60;;;;;;5093710;28;20032;-85
2021/08/09 01:53:31;;;;;;;19.70;13.07;;;24.40;98.60;;;;;;5076026;28;20031;-84
2021/08/09 01:55:57;;;;;;;18.73;12.25;;;24.30;98.60;;;;;;5093355;28;20028;-85
2021/08/09 01:58:23;;;;;;;15.95;11.73;;;24.40;98.60;;;;;;5059181;28;20039;-85
2021/08/09 02:00:49;;;;;;;18.85;12.73;;;24.40;98.60;;;;;;5052307;28;20032;-85
2021/08/09 02:03:15;;;;;;;18.00;12.40;;;24.40;98.70;;;;;;5093955;28;20097;-87
2021/08/09 02:05:41;;;;;;;16.77;11.80;;;24.40;98.70;;;;;;5093811;28;20085;-85
2021/08/09 02:08:11;;;;;;;16.42;11.77;;;24.40;98.70;;;;;;5079026;28;20393;-85
2021/08/09 02:10:37;;;;;;;16.88;10.98;;;24.30;98.70;;;;;;5097035;28;20027;-85
2021/08/09 02:13:18;;;;;;;15.98;11.55;;;24.40;98.70;;;;;;5075490;28;20032;-85
2021/08/09 02:16:32;;;;;;;17.92;11.70;;;24.40;98.70;;;;;;5093826;28;20036;-85
2021/08/09 02:19:05;;;;;;;18.00;12.07;;;24.30;98.70;;;;;;4977993;28;20133;-85
2021/08/09 02:21:54;;;;;;;14.73;10.70;;;24.30;98.70;;;;;;5077460;28;20068;-85
2021/08/09 02:24:35;;;;;;;14.70;11.57;;;24.30;98.70;;;;;;5075199;28;20059;-85
2021/08/09 02:27:13;;;;;;;15.35;9.77;;;24.30;98.70;;;;;;5092910;28;20120;-85
2021/08/09 02:29:43;;;;;;;17.48;11.52;;;24.30;98.80;;;;;;5095003;28;20103;-85
2021/08/09 02:32:10;;;;;;;14.38;9.63;;;24.30;98.80;;;;;;5093141;28;20065;-85
2021/08/09 02:34:37;;;;;;;13.35;9.70;;;24.40;98.80;;;;;;5075882;28;20063;-85
2021/08/09 02:37:04;;;;;;;15.43;9.88;;;24.40;98.80;;;;;;5043219;28;20039;-85
2021/08/09 02:39:31;;;;;;;13.65;9.05;;;24.40;98.80;;;;;;5075552;28;20057;-85
2021/08/09 02:41:59;;;;;;;14.25;9.70;;;24.30;98.80;;;;;;5093319;28;20091;-85
2021/08/09 02:44:25;;;;;;;15.27;10.05;;;24.40;98.80;;;;;;5058159;28;20424;-85
2021/08/09 02:46:52;;;;;;;15.25;10.27;;;24.40;98.80;;;;;;5093171;28;20039;-85
2021/08/09 02:49:18;;;;;;;13.02;9.63;;;24.30;98.80;;;;;;5074964;28;20098;-85
2021/08/09 02:51:45;;;;;;;16.90;10.60;;;24.40;98.80;;;;;;5075333;28;20474;-84
2021/08/09 02:54:14;;;;;;;13.57;9.90;;;24.40;98.80;;;;;;5058326;28;20032;-85
2021/08/09 02:56:39;;;;;;;13.57;9.15;;;24.40;98.80;;;;;;5076449;28;21979;-85
2021/08/09 02:59:05;;;;;;;15.15;8.98;;;24.40;99.00;;;;;;5092992;28;20450;-85
2021/08/09 03:01:33;;;;;;;12.75;9.27;;;24.30;98.80;;;;;;5077696;28;20032;-84
2021/08/09 03:04:00;;;;;;;12.15;8.63;;;24.40;98.80;;;;;;5092693;28;20035;-84
2021/08/09 03:06:27;;;;;;;13.60;8.60;;;24.40;98.80;;;;;;5092822;28;20055;-85
2021/08/09 03:08:54;;;;;;;12.52;9.38;;;24.40;98.80;;;;;;5092516;28;20024;-85
2021/08/09 03:11:21;;;;;;;12.70;8.45;;;24.40;98.80;;;;;;5092794;28;20567;-85
2021/08/09 03:13:48;;;;;;;12.68;8.68;;;24.40;98.80;;;;;;5092314;28;20024;-84
2021/08/09 03:16:15;;;;;;;14.98;8.45;;;24.40;98.80;;;;;;5092142;28;20470;-84
2021/08/09 03:18:41;;;;;;;13.35;8.68;;;24.40;98.80;;;;;;5092335;28;20056;-85
2021/08/09 03:21:07;;;;;;;13.95;8.50;;;24.30;98.80;;;;;;5058354;28;20543;-84
2021/08/09 03:23:33;;;;;;;12.55;8.23;;;24.30;98.80;;;;;;5040890;28;20056;-84
2021/08/09 03:25:59;;;;;;;12.05;8.10;;;24.30;98.80;;;;;;5092673;28;20061;-84
2021/08/09 03:28:25;;;;;;;12.50;7.95;;;24.40;98.80;;;;;;5093450;28;20062;-85
2021/08/09 03:30:51;;;;;;;11.75;7.80;;;24.40;98.80;;;;;;5075676;28;20024;-85
2021/08/09 03:33:16;;;;;;;10.88;7.88;;;24.30;98.70;;;;;;5074532;28;20032;-84
2021/08/09 03:35:42;;;;;;;11.27;8.32;;;24.30;98.70;;;;;;5091969;28;20024;-85
2021/08/09 03:38:08;;;;;;;10.43;8.13;;;24.40;98.70;;;;;;5076867;28;20052;-84
2021/08/09 03:40:34;;;;;;;12.63;7.70;;;24.40;98.70;;;;;;5074037;28;20082;-85
2021/08/09 03:43:00;;;;;;;10.52;7.32;;;24.40;98.70;;;;;;5075151;28;20058;-84
2021/08/09 03:45:26;;;;;;;12.63;7.57;;;24.40;98.70;;;;;;5075155;28;20028;-87
2021/08/09 03:47:51;;;;;;;9.65;7.38;;;24.40;98.70;;;;;;5092873;28;20040;-84
2021/08/09 03:50:17;;;;;;;9.65;6.93;;;24.40;98.70;;;;;;5041191;28;20457;-84
2021/08/09 03:52:47;;;;;;;13.38;7.10;;;24.40;98.70;;;;;;5092370;28;20470;-84
2021/08/09 03:55:13;;;;;;;9.93;6.72;;;24.40;98.70;;;;;;5094312;28;20025;-85
2021/08/09 03:57:39;;;;;;;12.00;6.82;;;24.40;98.70;;;;;;5074067;28;20110;-84
2021/08/09 04:00:06;;;;;;;10.05;6.65;;;24.40;98.70;;;;;;5058717;28;20082;-85
2021/08/09 04:02:31;;;;;;;10.60;6.63;;;24.40;98.70;;;;;;5073721;28;20032;-85
2021/08/09 04:04:58;;;;;;;8.27;6.72;;;24.40;98.70;;;;;;5078338;28;20450;-85
2021/08/09 04:07:27;;;;;;;10.27;6.88;;;24.30;98.70;;;;;;5057565;28;20032;-85
2021/08/09 04:09:54;;;;;;;10.70;6.68;;;24.30;98.70;;;;;;5092010;28;20031;-85
2021/08/09 04:12:21;;;;;;;10.43;6.47;;;24.30;98.90;;;;;;5092052;28;20474;-84
2021/08/09 04:14:46;;;;;;;10.05;6.45;;;24.30;98.70;;;;;;5091874;28;20024;-85
2021/08/09 04:17:12;;;;;;;9.95;6.47;;;24.40;98.70;;;;;;5073606;28;20060;-85
2021/08/09 04:19:38;;;;;;;8.98;6.10;;;24.30;98.70;;;;;;5075870;28;20067;-85
2021/08/09 04:22:04;;;;;;;10.75;6.72;;;24.30;98.70;;;;;;5078332;28;20024;-85
2021/08/09 04:24:30;;;;;;;7.88;5.88;;;24.40;98.70;;;;;;5077848;28;20114;-84
2021/08/09 04:26:55;;;;;;;9.43;6.18;;;24.40;98.70;;;;;;5077675;28;20550;-85
2021/08/09 04:29:21;;;;;;;8.65;5.55;;;24.30;98.60;;;;;;5060458;28;20078;-85
2021/08/09 04:31:46;;;;;;;9.25;6.13;;;24.40;98.70;;;;;;5095297;28;20028;-85
2021/08/09 04:34:12;;;;;;;9.00;6.03;;;24.30;98.60;;;;;;5098255;28;20058;-85
2021/08/09 04:36:38;;;;;;;8.65;5.85;;;24.30;98.60;;;;;;5085993;28;20040;-85
2021/08/09 04:39:03;;;;;;;9.00;5.50;;;24.40;98.60;;;;;;5077458;28;20424;-85
2021/08/09 04:41:29;;;;;;;10.00;6.15;;;24.30;98.60;;;;;;5077002;28;20055;-85
2021/08/09 04:43:55;;;;;;;7.75;5.30;;;24.40;98.60;;;;;;5077002;28;20028;-84
2021/08/09 04:46:20;;;;;;;9.52;5.63;;;24.40;98.60;;;;;;5060724;28;20103;-85
2021/08/09 04:48:46;;;;;;;8.45;5.30;;;24.40;98.60;;;;;;5082557;28;20039;-85
2021/08/09 04:51:13;;;;;;;8.38;5.82;;;24.40;98.60;;;;;;5095579;28;20489;-84
2021/08/09 04:53:39;;;;;;;7.43;4.88;;;24.40;98.70;;;;;;5095400;28;20089;-85
2021/08/09 04:56:05;;;;;;;7.68;4.28;;;24.40;98.60;;;;;;5061840;28;20462;-84
2021/08/09 04:58:30;;;;;;;6.43;4.65;;;24.40;98.60;;;;;;5078751;28;20032;-85
2021/08/09 05:00:56;;;;;;;6.88;4.72;;;24.30;98.60;;;;;;5076712;28;20054;-84
2021/08/09 05:03:22;;;;;;;8.65;5.70;;;24.40;98.60;;;;;;5061137;28;20446;-84
2021/08/09 05:05:47;;;;;;;7.40;4.88;;;24.40;98.60;;;;;;5076667;28;20028;-85
2021/08/09 05:08:13;;;;;;;6.70;4.57;;;24.30;98.60;;;;;;5076978;28;20047;-85
2021/08/09 05:10:39;;;;;;;6.95;4.30;;;24.40;98.60;;;;;;5076494;28;20458;-85
2021/08/09 05:13:05;;;;;;;8.23;4.60;;;24.30;98.60;;;;;;5076690;28;20120;-84
2021/08/09 05:15:32;;;;;;;6.65;4.55;;;24.30;98.60;;;;;;5063265;28;20473;-84
2021/08/09 05:17:58;;;;;;;7.97;4.78;;;24.30;98.60;;;;;;5077639;28;20513;-84
2021/08/09 05:20:24;;;;;;;7.65;4.20;;;24.30;98.60;;;;;;5076803;28;20105;-85
2021/08/09 05:22:50;;;;;;;7.93;5.45;;;24.40;98.60;;;;;;5076082;28;20174;-85
2021/08/09 05:25:15;;;;;;;6.93;4.72;;;24.40;98.70;;;;;;5094935;28;20330;-85
2021/08/09 05:27:42;;;;;;;6.82;4.40;;;24.30;98.60;;;;;;5095197;28;20089;-85
2021/08/09 05:30:10;;;;;;;6.53;3.97;;;24.30;98.70;;;;;;5094702;28;20038;-85
2021/08/09 05:32:37;;;;;;;5.95;4.10;;;24.30;98.70;;;;;;5094299;28;20073;-85
2021/08/09 05:35:04;;;;;;;7.93;4.85;;;24.30;98.70;;;;;;5076210;28;20119;-85
2021/08/09 05:37:32;;;;;;;6.85;4.47;;;24.30;98.70;;;;;;5092385;28;20028;-85
2021/08/09 05:39:58;;;;;;;7.18;3.72;;;24.30;98.70;;;;;;5093721;28;20085;-85
2021/08/09 05:42:24;;;;;;;7.82;4.60;;;24.30;98.70;;;;;;5076176;28;20024;-85
2021/08/09 05:44:51;;;;;;;7.32;5.15;;;24.30;98.70;;;;;;5094172;28;20103;-84
2021/08/09 05:47:16;;;;;;;6.97;4.97;;;24.30;98.70;;;;;;5079227;28;20115;-85
2021/08/09 05:49:42;;;;;;;8.02;5.47;;;24.30;98.70;;;;;;5093851;28;20466;-83
2021/08/09 05:52:07;;;;;;;9.48;5.32;;;24.30;98.70;;;;;;5059378;28;20040;-84
2021/08/09 05:54:33;;;;;;;8.18;5.68;;;24.40;98.70;;;;;;5059299;28;20082;-84
2021/08/09 05:56:59;;;;;;;9.90;5.85;;;24.30;98.70;;;;;;5058485;28;20097;-82
2021/08/09 05:59:24;;;;;;;9.38;5.82;;;24.30;98.70;;;;;;5079076;28;20086;-82
2021/08/09 06:01:50;;;;;;;10.20;6.90;;;24.30;98.60;;;;;;5075213;28;20031;-82
2021/08/09 06:04:16;;;;;;;12.27;7.20;;;24.30;98.60;;;;;;5076593;28;20420;-82
2021/08/09 06:06:42;;;;;;;12.60;7.60;;;24.30;98.60;;;;;;5042340;28;20039;-85
2021/08/09 06:09:08;;;;;;;11.65;8.13;;;24.30;98.60;;;;;;5059015;28;20391;-83
2021/08/09 06:11:34;;;;;;;11.07;8.02;;;24.30;98.60;;;;;;5041209;28;20043;-85
2021/08/09 06:13:59;;;;;;;12.57;9.05;;;24.40;98.70;;;;;;5075555;28;20028;-83
2021/08/09 06:16:25;;;;;;;16.80;10.20;;;24.30;98.60;;;;;;5057726;28;20052;-85
2021/08/09 06:18:51;;;;;;;14.27;9.32;;;24.30;98.60;;;;;;5041485;28;20060;-85
2021/08/09 06:21:16;;;;;;;14.75;10.02;;;24.40;98.60;;;;;;5075377;28;20035;-84
2021/08/09 06:23:43;;;;;;;18.15;11.25;;;24.40;98.50;;;;;;5075198;28;20024;-84
2021/08/09 06:26:08;;;;;;;15.82;11.30;;;24.40;98.50;;;;;;5093285;28;20032;-83
2021/08/09 06:28:35;;;;;;;16.58;10.05;;;24.40;98.50;;;;;;5075155;28;20440;-84
2021/08/09 06:31:01;;;;;;;14.10;10.57;;;24.40;98.50;;;;;;5092650;28;20058;-85
2021/08/09 06:33:27;;;;;;;14.73;10.25;;;24.40;98.40;;;;;;5074896;28;20028;-84
2021/08/09 06:35:52;;;;;;;12.48;9.02;;;24.40;98.40;;;;;;5092890;28;20028;-85
2021/08/09 06:38:18;;;;;;;14.52;9.50;;;24.40;98.40;;;;;;5076006;28;20493;-85
2021/08/09 06:40:45;;;;;;;14.05;9.68;;;24.40;98.40;;;;;;5075312;28;20039;-85
2021/08/09 06:43:11;;;;;;;11.75;8.63;;;24.40;98.40;;;;;;5076681;28;20028;-85
2021/08/09 06:45:44;;;;;;;12.85;8.85;;;24.40;98.40;;;;;;5093280;28;20028;-85
2021/08/09 06:48:11;;;;;;;12.35;8.18;;;24.40;98.30;;;;;;5078263;28;20024;-84
2021/08/09 06:50:38;;;;;;;11.98;7.95;;;24.40;98.30;;;;;;5077461;28;20019;-82
2021/08/09 06:53:04;;;;;;;11.32;7.22;;;24.40;98.30;;;;;;5077889;28;20027;-82
2021/08/09 06:55:30;;;;;;;11.13;6.82;;;24.40;98.20;;;;;;5092768;28;20027;-82
2021/08/09 06:57:55;;;;;;;10.10;6.53;;;24.40;98.20;;;;;;5074073;28;20513;-83
2021/08/09 07:00:21;;;;;;;9.63;6.25;;;24.40;98.20;;;;;;5058343;28;20032;-83
2021/08/09 07:02:47;;;;;;;8.52;6.47;;;24.40;98.10;;;;;;5092540;28;20027;-85
2021/08/09 07:05:12;;;;;;;9.93;5.65;;;24.40;98.00;;;;;;5093032;28;20119;-83
2021/08/09 07:07:40;;;;;;;8.13;5.38;;;24.40;98.00;;;;;;5072992;28;20028;-82
2021/08/09 07:10:06;;;;;;;9.18;5.82;;;24.40;98.00;;;;;;5075656;28;20143;-83
2021/08/09 07:12:32;;;;;;;8.98;4.75;;;24.40;98.00;;;;;;5041381;28;20074;-82
2021/08/09 07:14:57;;;;;;;8.32;4.43;;;24.40;98.00;;;;;;5073759;28;20085;-83
2021/08/09 07:17:23;;;;;;;5.38;3.97;;;24.40;97.90;;;;;;5057790;28;20059;-83
2021/08/09 07:19:48;;;;;;;7.57;4.38;;;24.40;98.00;;;;;;5076433;28;20024;-86
2021/08/09 07:22:14;;;;;;;7.80;4.03;;;24.40;97.90;;;;;;5094374;28;20381;-83
2021/08/09 07:24:40;;;;;;;6.03;3.50;;;24.40;97.90;;;;;;5074026;28;20420;-83
2021/08/09 07:27:05;;;;;;;5.78;3.80;;;24.40;97.90;;;;;;5079891;28;20534;-83
2021/08/09 07:29:31;;;;;;;5.00;3.35;;;24.40;97.80;;;;;;5074264;28;20040;-83
2021/08/09 07:31:57;;;;;;;5.78;3.90;;;24.40;97.80;;;;;;5040745;28;20028;-83
2021/08/09 07:34:23;;;;;;;5.78;3.17;;;24.40;97.80;;;;;;5074509;28;20024;-82
2021/08/09 07:36:49;;;;;;;6.00;3.35;;;24.40;97.80;;;;;;5074161;28;20081;-84
2021/08/09 07:39:14;;;;;;;4.65;2.70;;;24.40;97.80;;;;;;5074987;28;20173;-84
2021/08/09 07:41:40;;;;;;;4.68;3.00;;;24.40;97.70;;;;;;5071358;28;20032;-82
2021/08/09 07:44:06;;;;;;;5.78;3.20;;;24.40;97.70;;;;;;5093898;28;20020;-83
2021/08/09 07:46:32;;;;;;;4.85;3.38;;;24.40;97.70;;;;;;5057006;28;20127;-82
2021/08/09 07:48:58;;;;;;;3.45;2.65;;;24.50;97.60;;;;;;5056191;28;20031;-82
2021/08/09 07:51:24;;;;;;;5.40;2.97;;;24.60;97.60;;;;;;5054128;28;20436;-81
2021/08/09 07:53:50;;;;;;;4.05;2.85;;;24.60;97.60;;;;;;5072993;28;20025;-82
2021/08/09 07:56:16;;;;;;;3.22;2.60;;;24.60;97.60;;;;;;5057818;28;20024;-81
2021/08/09 07:58:42;;;;;;;4.70;3.08;;;24.60;97.70;;;;;;5041833;28;20033;-82
2021/08/09 08:01:08;;;;;;;4.78;2.55;;;24.60;97.70;;;;;;5028123;28;20501;-82
2021/08/09 08:03:33;;;;;;;4.78;2.97;;;24.60;97.70;;;;;;5057913;28;20049;-82
2021/08/09 08:05:59;;;;;;;4.95;3.15;;;24.60;97.70;;;;;;5047318;28;20025;-82
2021/08/09 08:08:25;;;;;;;4.35;2.40;;;24.60;97.70;;;;;;5057658;28;20044;-84
2021/08/09 08:10:51;;;;;;;2.97;2.30;;;24.60;97.70;;;;;;5059165;28;20465;-81
2021/08/09 08:13:16;;;;;;;4.22;2.50;;;24.60;97.70;;;;;;5041722;28;20442;-81
2021/08/09 08:15:42;;;;;;;4.22;2.67;;;24.60;97.80;;;;;;5041131;28;20032;-83
2021/08/09 08:18:08;;;;;;;3.75;2.30;;;24.60;98.00;;;;;;5056449;28;20494;-82
2021/08/09 08:20:34;;;;;;;4.03;2.40;;;24.60;97.70;;;;;;5057376;28;20466;-81
2021/08/09 08:23:02;;;;;;;4.68;2.20;;;24.60;97.70;;;;;;5040234;28;20035;-82
2021/08/09 08:25:29;;;;;;;3.22;2.35;;;24.60;97.70;;;;;;5057385;28;20036;-81
2021/08/09 08:27:54;;;;;;;3.70;2.33;;;24.60;97.70;;;;;;5075742;28;20036;-81
2021/08/09 08:30:20;;;;;;;4.10;2.30;;;24.60;97.70;;;;;;5074947;28;20043;-82
2021/08/09 08:32:47;;;;;;;3.75;2.47;;;24.60;97.60;;;;;;5057233;28;20075;-82
2021/08/09 08:35:12;;;;;;;4.22;2.22;;;24.60;97.60;;;;;;5059316;28;20055;-82
2021/08/09 08:37:39;;;;;;;3.15;2.05;;;24.60;97.60;;;;;;5057930;28;20063;-82
2021/08/09 08:40:05;;;;;;;3.45;1.88;;;24.60;97.60;;;;;;5073255;28;20465;-82
2021/08/09 08:42:31;;;;;;;3.72;2.13;;;24.60;97.60;;;;;;5073115;28;20058;-82
2021/08/09 08:44:57;;;;;;;3.08;2.15;;;24.60;97.60;;;;;;5077105;28;20335;-81
2021/08/09 08:47:24;;;;;;;2.90;1.65;;;24.60;97.60;;;;;;5077144;28;20048;-81
2021/08/09 08:49:50;;;;;;;3.05;1.73;;;24.60;97.60;;;;;;5060454;28;20028;-82
2021/08/09 08:52:16;;;;;;;3.60;2.22;;;24.50;97.60;;;;;;5060492;28;20082;-82
2021/08/09 08:54:43;;;;;;;3.03;2.15;;;24.50;97.70;;;;;;5077839;28;20031;-82
2021/08/09 08:57:26;;;;;;;3.47;2.05;;;24.50;97.70;;;;;;5073982;28;20064;-82
2021/08/09 08:59:52;;;;;;;2.35;1.70;;;24.50;97.70;;;;;;5077032;28;20107;-81
2021/08/09 09:02:35;;;;;;;5.75;2.65;;;24.50;97.70;;;;;;5059673;28;20132;-81
2021/08/09 09:05:20;;;;;;;4.53;2.22;;;24.50;97.80;;;;;;5094717;28;20035;-83
2021/08/09 09:07:50;;;;;;;;;;;24.50;97.80;;;;;;5076084;28;20433;-82
2021/08/09 09:10:30;;;;;;;3.63;2.05;;;24.50;97.80;;;;;;5094436;28;19903;-82
2021/08/09 09:13:17;;;;;;;3.88;2.05;;;24.40;97.80;;;;;;5057599;28;20074;-81
2021/08/09 09:16:02;;;;;;;3.53;2.30;;;24.50;97.80;;;;;;5058086;28;20050;-81
2021/08/09 09:18:43;;;;;;;3.83;2.20;;;24.50;97.80;;;;;;5057640;28;20053;-82
2021/08/09 09:21:30;;;;;;;4.40;1.98;;;24.50;97.80;;;;;;5080893;28;20478;-82
2021/08/09 09:24:17;;;;;;;3.50;1.80;;;24.50;97.80;;;;;;5094393;28;20024;-82
2021/08/09 09:26:45;;;;;;;4.00;1.98;;;24.50;97.70;;;;;;5060332;28;20028;-82
2021/08/09 09:29:13;;;;;;;4.43;2.35;;;24.50;97.70;;;;;;5093812;28;20032;-81
2021/08/09 09:31:40;;;;;;;2.60;1.77;;;24.50;97.70;;;;;;5094544;28;20028;-81
2021/08/09 09:34:12;;;;;;;2.92;2.20;;;24.50;97.70;;;;;;5074774;28;20389;-82
2021/08/09 09:36:56;;;;;;;3.50;2.23;;;24.50;97.70;;;;;;5094445;28;20157;-81
2021/08/09 09:39:26;;;;;;;2.58;2.00;;;24.50;97.80;;;;;;5094598;28;20028;-82
2021/08/09 09:41:53;;;;;;;3.97;2.45;;;24.50;97.80;;;;;;5076070;28;20035;-81
2021/08/09 09:44:27;;;;;;;3.90;2.47;;;24.50;97.80;;;;;;5075486;28;20032;-82
2021/08/09 09:47:13;;;;;;;2.78;2.30;;;24.50;97.70;;;;;;5059955;28;20056;-82
2021/08/09 09:49:39;;;;;;;2.92;2.10;;;24.50;97.70;;;;;;5061615;28;20071;-81
2021/08/09 09:52:04;;;;;;;3.53;2.30;;;24.50;97.70;;;;;;5075843;28;20051;-82
2021/08/09 09:54:30;;;;;;;2.70;1.88;;;24.50;97.80;;;;;;5075686;28;20509;-82
2021/08/09 09:56:56;;;;;;;3.42;2.45;;;24.50;97.80;;;;;;5059135;28;20127;-81
2021/08/09 09:59:27;;;;;;;2.53;2.03;;;24.50;97.80;;;;;;5075892;28;20483;-82
2021/08/09 10:01:52;;;;;;;5.93;2.40;;;24.50;97.80;;;;;;5093927;28;20052;-82
2021/08/09 10:04:19;;;;;;;3.45;2.20;;;24.60;97.70;;;;;;5075329;28;20445;-82
2021/08/09 10:06:46;;;;;;;4.38;2.40;;;24.60;97.80;;;;;;5061160;28;20386;-82
2021/08/09 10:09:13;;;;;;;4.72;1.95;;;24.60;97.80;;;;;;5075303;28;20059;-82
2021/08/09 10:11:43;;;;;;;5.18;2.45;;;24.50;97.70;;;;;;5076184;28;20062;-81
2021/08/09 10:14:12;;;;;;;3.97;2.08;;;24.50;97.70;;;;;;5075038;28;20063;-85
2021/08/09 10:16:39;;;;;;;3.92;2.55;;;24.50;97.70;;;;;;5091798;28;20090;-81
2021/08/09 10:19:06;;;;;;;3.88;2.40;;;24.60;98.00;;;;;;5074433;28;20055;-81
2021/08/09 10:21:33;;;;;;;3.50;2.40;;;24.50;97.70;;;;;;5075315;28;20127;-82
2021/08/09 10:23:59;;;;;;;5.22;2.58;;;24.60;97.70;;;;;;5075157;28;20457;-81
2021/08/09 10:26:31;;;;;;;3.03;2.10;;;24.50;97.70;;;;;;5093811;28;20052;-81
2021/08/09 10:29:09;;;;;;;2.88;1.95;;;24.50;97.70;;;;;;5093426;28;20063;-81
2021/08/09 10:31:52;;;;;;;3.20;1.98;;;24.50;97.70;;;;;;5074870;28;20026;-82
2021/08/09 10:34:37;;;;;;;3.67;2.60;;;24.50;97.70;;;;;;5077094;28;20059;-81
2021/08/09 10:37:13;;;;;;;3.22;1.83;;;24.50;97.70;;;;;;5093746;28;20028;-81
2021/08/09 10:39:49;;;;;;;3.15;1.85;;;24.50;97.70;;;;;;5092829;28;20031;-81
2021/08/09 10:42:58;;;;;;;2.33;1.60;;;24.50;97.60;;;;;;5074671;28;20035;-82
2021/08/09 10:45:45;;;;;;;2.53;1.67;;;24.60;97.60;;;;;;5031118;28;20032;-81
2021/08/09 10:48:12;;;;;;;2.13;1.63;;;24.50;97.60;;;;;;5075380;28;20090;-80
2021/08/09 10:50:41;;;;;;;3.28;1.83;;;24.50;97.60;;;;;;5058830;28;20035;-81
2021/08/09 10:53:29;;;;;;;3.42;1.98;;;24.50;97.60;;;;;;5074784;28;20036;-84
2021/08/09 10:55:59;;;;;;;2.63;1.60;;;24.60;97.60;;;;;;5093053;28;20066;-83
2021/08/09 10:58:43;;;;;;;1.85;1.50;;;24.50;97.60;;;;;;5093340;28;20032;-84
2021/08/09 11:01:10;;;;;;;2.53;1.55;;;24.60;97.60;;;;;;5092975;28;20103;-83
2021/08/09 11:04:09;;;;;;;2.08;1.50;;;24.60;97.60;;;;;;5057679;28;20043;-83
2021/08/09 11:06:50;;;;;;;2.90;1.88;;;24.60;97.60;;;;;;5092297;28;20020;-82
2021/08/09 11:09:31;;;;;;;1.80;1.40;;;24.50;97.60;;;;;;5094006;28;20050;-86
2021/08/09 11:12:28;;;;;;;1.60;1.33;;;24.60;97.60;;;;;;5092804;28;20513;-83
2021/08/09 11:15:18;;;;;;;2.17;1.63;;;24.60;97.50;;;;;;5082606;28;20032;-83
2021/08/09 11:17:47;;;;;;;2.70;1.83;;;24.60;97.60;;;;;;5076793;28;20078;-83
2021/08/09 11:20:25;;;;;;;2.38;1.88;;;24.60;97.60;;;;;;5074304;28;20118;-83
2021/08/09 11:23:00;;;;;;;2.65;1.70;;;24.60;97.60;;;;;;5075100;28;20020;-83
2021/08/09 11:25:27;;;;;;;2.72;1.52;;;24.60;97.60;;;;;;5074203;28;20020;-83
2021/08/09 11:28:08;;;;;;;2.60;1.60;;;24.60;97.50;;;;;;5092889;28;20039;-83
2021/08/09 11:30:54;;;;;;;1.50;1.25;;;24.60;97.50;;;;;;5074052;28;20020;-83
2021/08/09 11:33:25;;;;;;;2.08;1.38;;;24.60;97.50;;;;;;5076174;28;20035;-82
2021/08/09 11:35:52;;;;;;;2.55;1.25;;;24.60;97.50;;;;;;5075363;28;20027;-82
2021/08/09 11:38:18;;;;;;;2.30;1.60;;;24.60;97.50;;;;;;5092269;28;20028;-81
2021/08/09 11:40:45;;;;;;;2.95;1.45;;;24.60;97.40;;;;;;5075440;28;20047;-82
2021/08/09 11:43:16;;;;;;;1.58;1.35;;;24.60;97.40;;;;;;5092819;28;20021;-82
2021/08/09 11:45:42;;;;;;;2.30;1.50;;;24.60;97.50;;;;;;5094337;28;20020;-81
2021/08/09 11:48:09;;;;;;;2.42;1.88;;;24.60;97.50;;;;;;5057523;28;20080;-81
2021/08/09 11:50:40;;;;;;;2.50;1.77;;;24.60;97.50;;;;;;5075045;28;20028;-82
2021/08/09 11:53:08;;;;;;;3.17;2.10;;;24.60;97.50;;;;;;5074033;28;20028;-81
2021/08/09 11:55:34;;;;;;;1.95;1.63;;;24.60;97.50;;;;;;5073904;28;20020;-82
2021/08/09 11:58:00;;;;;;;2.55;1.65;;;24.60;97.50;;;;;;5074243;28;20036;-81
2021/08/09 12:00:37;;;;;;;2.05;1.65;;;24.60;97.50;;;;;;5092810;28;20466;-82
2021/08/09 12:03:16;;;;;;;1.88;1.67;;;24.60;97.50;;;;;;5055849;28;20473;-81
2021/08/09 12:05:41;;;;;;;2.88;2.22;;;24.60;97.60;;;;;;5075718;28;20058;-82
2021/08/09 12:08:07;;;;;;;1.98;1.52;;;24.60;97.60;;;;;;5098434;28;20032;-81
2021/08/09 12:10:35;;;;;;;2.97;2.13;;;24.60;97.60;;;;;;5057206;28;20470;-81
2021/08/09 12:13:21;;;;;;;2.17;1.83;;;24.60;97.60;;;;;;5097907;28;20023;-81
2021/08/09 12:16:14;;;;;;;3.35;2.15;;;24.60;97.60;;;;;;5073662;28;20025;-81
2021/08/09 12:18:52;;;;;;;2.08;1.75;;;24.60;97.60;;;;;;5073676;28;20087;-82
2021/08/09 12:21:18;;;;;;;1.85;1.58;;;24.60;97.60;;;;;;5091755;28;20119;-81
2021/08/09 12:23:55;;;;;;;1.60;1.50;;;24.60;97.60;;;;;;5076399;28;20056;-81
2021/08/09 12:26:22;;;;;;;2.47;1.65;;;24.60;97.60;;;;;;5075017;28;20535;-82
2021/08/09 12:28:57;;;;;;;2.78;1.50;;;24.60;97.60;;;;;;5091696;28;20043;-81
2021/08/09 12:31:29;;;;;;;3.00;1.60;;;24.60;97.60;;;;;;5091679;28;20024;-81
2021/08/09 12:34:04;;;;;;;2.38;1.55;;;24.60;97.60;;;;;;5095458;28;20134;-81
2021/08/09 12:36:31;;;;;;;3.22;1.77;;;24.60;97.60;;;;;;5091746;28;20101;-81
2021/08/09 12:38:56;;;;;;;2.67;1.55;;;24.60;97.60;;;;;;5074012;28;20097;-81
2021/08/09 12:41:28;;;;;;;1.98;1.70;;;24.60;97.60;;;;;;5057119;28;20028;-81
2021/08/09 12:43:54;;;;;;;2.15;1.60;;;24.60;97.60;;;;;;5099461;28;20028;-82
2021/08/09 12:46:20;;;;;;;2.47;1.88;;;24.60;97.60;;;;;;5077376;28;20622;-81
2021/08/09 12:48:51;;;;;;;2.35;1.58;;;24.60;97.60;;;;;;5076087;28;20047;-81
2021/08/09 12:51:18;;;;;;;2.25;1.48;;;24.60;97.60;;;;;;5094807;28;20477;-81